sensor_id;sensor_type;location;lat;lon;timestamp;pressure;altitude;pressure_sealevel;temperature;humidity
69524;BME280;56723;42.694;23.286;2023-03-03T03:29:41;95001.31;;;2.25;100.00
69524;BME280;56723;42.694;23.286;2023-03-03T03:32:08;95009.69;;;2.27;100.00
69524;BME280;56723;42.694;23.286;2023-03-03T03:34:35;95017.81;;;2.32;100.00
69524;BME280;56723;42.694;23.286;2023-03-03T03:37:04;94996.78;;;2.29;100.00
69524;BME280;56723;42.694;23.286;2023-03-03T03:39:32;95005.97;;;2.31;100.00
69524;BME280;56723;42.694;23.286;2023-03-03T03:41:59;95008.31;;;2.34;100.00
69524;BME280;56723;42.694;23.286;2023-03-03T03:44:26;95003.06;;;2.36;100.00
69524;BME280;56723;42.694;23.286;2023-03-03T03:46:54;95001.22;;;2.38;100.00
69524;BME280;56723;42.694;23.286;2023-03-03T06:40:22;95024.81;;;2.53;100.00
69524;BME280;56723;42.694;23.286;2023-03-03T06:42:52;95029.94;;;2.53;100.00
69524;BME280;56723;42.694;23.286;2023-03-03T06:45:19;95032.25;;;2.56;100.00
69524;BME280;56723;42.694;23.286;2023-03-03T06:47:46;95024.34;;;2.59;100.00
69524;BME280;56723;42.694;23.286;2023-03-03T06:50:17;95035.03;;;2.64;100.00
69524;BME280;56723;42.694;23.286;2023-03-03T06:52:45;95017.50;;;2.59;100.00
69524;BME280;56723;42.694;23.286;2023-03-03T06:55:20;95032.00;;;2.70;100.00
69524;BME280;56723;42.694;23.286;2023-03-03T06:57:48;95024.94;;;2.73;100.00
69524;BME280;56723;42.694;23.286;2023-03-03T07:02:42;95036.66;;;2.87;100.00
69524;BME280;56723;42.694;23.286;2023-03-03T07:05:17;95032.22;;;2.89;100.00
69524;BME280;56723;42.694;23.286;2023-03-03T07:07:44;95029.44;;;2.92;100.00
69524;BME280;56723;42.694;23.286;2023-03-03T07:10:25;95041.75;;;2.98;100.00
69524;BME280;56723;42.694;23.286;2023-03-03T07:12:53;95035.56;;;3.01;100.00
69524;BME280;56723;42.694;23.286;2023-03-03T07:15:24;95039.53;;;3.05;100.00
69524;BME280;56723;42.694;23.286;2023-03-03T07:17:56;95031.50;;;3.09;100.00
69524;BME280;56723;42.694;23.286;2023-03-03T07:20:40;95035.47;;;3.13;100.00
69524;BME280;56723;42.694;23.286;2023-03-03T07:23:14;95026.56;;;3.18;100.00
69524;BME280;56723;42.694;23.286;2023-03-03T07:25:44;95028.44;;;3.16;100.00
69524;BME280;56723;42.694;23.286;2023-03-03T07:28:23;95031.47;;;3.21;100.00
69524;BME280;56723;42.694;23.286;2023-03-03T07:30:52;95029.25;;;3.16;100.00
69524;BME280;56723;42.694;23.286;2023-03-03T07:33:44;95024.94;;;3.17;100.00
69524;BME280;56723;42.694;23.286;2023-03-03T08:11:09;95013.75;;;3.29;100.00
69524;BME280;56723;42.694;23.286;2023-03-03T08:13:39;95007.00;;;3.28;100.00
69524;BME280;56723;42.694;23.286;2023-03-03T08:18:37;95011.16;;;3.40;100.00
69524;BME280;56723;42.694;23.286;2023-03-03T08:21:11;95014.88;;;3.47;100.00
69524;BME280;56723;42.694;23.286;2023-03-03T08:23:39;95016.25;;;3.51;100.00
69524;BME280;56723;42.694;23.286;2023-03-03T08:26:06;95002.13;;;3.57;100.00
69524;BME280;56723;42.694;23.286;2023-03-03T08:28:33;95009.44;;;3.61;100.00
69524;BME280;56723;42.694;23.286;2023-03-03T08:31:00;95003.03;;;3.67;100.00
69524;BME280;56723;42.694;23.286;2023-03-03T08:33:45;95008.22;;;3.76;100.00
69524;BME280;56723;42.694;23.286;2023-03-03T08:36:13;95007.28;;;3.77;100.00
69524;BME280;56723;42.694;23.286;2023-03-03T08:38:40;95009.09;;;3.87;100.00
69524;BME280;56723;42.694;23.286;2023-03-03T08:41:07;95010.22;;;3.94;100.00
69524;BME280;56723;42.694;23.286;2023-03-03T08:43:34;95008.09;;;3.99;100.00
69524;BME280;56723;42.694;23.286;2023-03-03T08:46:02;95009.22;;;4.06;100.00
69524;BME280;56723;42.694;23.286;2023-03-03T08:48:32;95002.88;;;4.10;100.00
69524;BME280;56723;42.694;23.286;2023-03-03T08:50:59;95007.88;;;4.11;100.00
69524;BME280;56723;42.694;23.286;2023-03-03T08:53:26;95005.19;;;4.13;100.00
69524;BME280;56723;42.694;23.286;2023-03-03T08:55:54;95013.03;;;4.11;100.00
69524;BME280;56723;42.694;23.286;2023-03-03T08:58:21;95005.72;;;4.07;100.00
69524;BME280;56723;42.694;23.286;2023-03-03T09:01:00;95000.19;;;4.11;100.00
69524;BME280;56723;42.694;23.286;2023-03-03T09:03:27;95003.56;;;4.12;100.00
69524;BME280;56723;42.694;23.286;2023-03-03T09:05:54;95009.16;;;4.17;100.00
69524;BME280;56723;42.694;23.286;2023-03-03T09:08:21;95009.84;;;4.19;100.00
69524;BME280;56723;42.694;23.286;2023-03-03T09:10:48;95002.16;;;4.19;100.00
69524;BME280;56723;42.694;23.286;2023-03-03T09:13:17;95012.03;;;4.24;100.00
69524;BME280;56723;42.694;23.286;2023-03-03T09:15:46;95005.03;;;4.26;100.00
69524;BME280;56723;42.694;23.286;2023-03-03T09:18:21;95001.66;;;4.25;100.00
69524;BME280;56723;42.694;23.286;2023-03-03T09:20:51;95000.03;;;4.24;100.00
69524;BME280;56723;42.694;23.286;2023-03-03T09:23:38;95007.19;;;4.30;100.00
69524;BME280;56723;42.694;23.286;2023-03-03T09:28:44;95011.69;;;4.38;100.00
69524;BME280;56723;42.694;23.286;2023-03-03T09:33:52;95007.00;;;4.43;100.00
69524;BME280;56723;42.694;23.286;2023-03-03T09:36:32;94997.25;;;4.46;100.00
69524;BME280;56723;42.694;23.286;2023-03-03T09:39:15;95007.41;;;4.48;100.00
69524;BME280;56723;42.694;23.286;2023-03-03T09:47:19;95009.78;;;4.61;100.00
69524;BME280;56723;42.694;23.286;2023-03-03T09:50:17;95004.22;;;4.65;100.00
69524;BME280;56723;42.694;23.286;2023-03-03T09:53:14;95009.91;;;4.69;100.00
69524;BME280;56723;42.694;23.286;2023-03-03T10:17:49;94997.53;;;4.74;100.00
69524;BME280;56723;42.694;23.286;2023-03-03T10:23:52;94987.81;;;4.87;100.00
69524;BME280;56723;42.694;23.286;2023-03-03T10:26:47;94986.38;;;4.94;100.00
69524;BME280;56723;42.694;23.286;2023-03-03T10:29:51;94975.53;;;4.91;100.00
69524;BME280;56723;42.694;23.286;2023-03-03T10:35:33;94986.09;;;4.97;100.00
69524;BME280;56723;42.694;23.286;2023-03-03T11:08:48;94953.06;;;4.73;100.00
69524;BME280;56723;42.694;23.286;2023-03-03T11:13:55;94946.31;;;4.72;100.00
69524;BME280;56723;42.694;23.286;2023-03-03T11:16:44;94946.06;;;4.75;100.00
69524;BME280;56723;42.694;23.286;2023-03-03T11:22:20;94939.84;;;4.87;100.00
69524;BME280;56723;42.694;23.286;2023-03-03T11:31:03;94936.63;;;4.95;100.00
69524;BME280;56723;42.694;23.286;2023-03-03T11:38:56;94935.91;;;4.74;100.00
69524;BME280;56723;42.694;23.286;2023-03-03T11:41:37;94932.84;;;4.80;100.00
69524;BME280;56723;42.694;23.286;2023-03-03T11:44:23;94925.00;;;4.81;100.00
69524;BME280;56723;42.694;23.286;2023-03-03T11:47:03;94925.13;;;4.80;100.00
69524;BME280;56723;42.694;23.286;2023-03-03T11:49:39;94924.44;;;4.78;100.00
69524;BME280;56723;42.694;23.286;2023-03-03T11:55:22;94916.50;;;4.91;100.00
69524;BME280;56723;42.694;23.286;2023-03-03T12:00:43;94914.75;;;4.81;100.00
69524;BME280;56723;42.694;23.286;2023-03-03T12:03:33;94921.88;;;4.87;100.00
69524;BME280;56723;42.694;23.286;2023-03-03T12:06:15;94915.56;;;4.92;100.00
69524;BME280;56723;42.694;23.286;2023-03-03T12:08:52;94914.91;;;4.99;100.00
69524;BME280;56723;42.694;23.286;2023-03-03T12:11:38;94919.59;;;5.04;100.00
69524;BME280;56723;42.694;23.286;2023-03-03T12:14:44;94918.78;;;5.03;100.00
69524;BME280;56723;42.694;23.286;2023-03-03T12:25:40;94918.00;;;4.93;100.00
69524;BME280;56723;42.694;23.286;2023-03-03T12:28:19;94917.47;;;4.99;100.00
69524;BME280;56723;42.694;23.286;2023-03-03T12:31:12;94921.25;;;4.95;100.00
69524;BME280;56723;42.694;23.286;2023-03-03T12:33:54;94924.19;;;4.81;100.00
69524;BME280;56723;42.694;23.286;2023-03-03T12:42:11;94921.72;;;4.70;100.00
69524;BME280;56723;42.694;23.286;2023-03-03T12:47:38;94923.88;;;4.65;100.00
69524;BME280;56723;42.694;23.286;2023-03-03T12:56:07;94922.66;;;4.69;100.00
69524;BME280;56723;42.694;23.286;2023-03-03T13:17:14;94908.06;;;4.60;100.00
69524;BME280;56723;42.694;23.286;2023-03-03T13:27:51;94897.19;;;4.96;100.00
69524;BME280;56723;42.694;23.286;2023-03-03T13:30:23;94900.69;;;5.05;100.00
69524;BME280;56723;42.694;23.286;2023-03-03T13:35:51;94901.78;;;5.21;100.00
69524;BME280;56723;42.694;23.286;2023-03-03T13:38:29;94908.66;;;5.21;100.00
69524;BME280;56723;42.694;23.286;2023-03-03T13:41:14;94912.03;;;5.21;100.00
69524;BME280;56723;42.694;23.286;2023-03-03T13:43:50;94905.44;;;5.19;100.00
69524;BME280;56723;42.694;23.286;2023-03-03T13:51:56;94895.84;;;5.11;100.00
69524;BME280;56723;42.694;23.286;2023-03-03T13:57:53;94896.63;;;5.02;100.00
69524;BME280;56723;42.694;23.286;2023-03-03T14:00:34;94899.47;;;5.09;100.00
69524;BME280;56723;42.694;23.286;2023-03-03T14:05:46;94903.69;;;5.19;100.00
69524;BME280;56723;42.694;23.286;2023-03-03T14:11:10;94900.56;;;5.16;100.00
69524;BME280;56723;42.694;23.286;2023-03-03T14:19:31;94893.69;;;5.16;100.00
69524;BME280;56723;42.694;23.286;2023-03-03T14:22:17;94889.06;;;5.10;100.00
69524;BME280;56723;42.694;23.286;2023-03-03T14:25:11;94890.28;;;5.06;100.00
69524;BME280;56723;42.694;23.286;2023-03-03T14:30:42;94889.06;;;5.10;100.00
69524;BME280;56723;42.694;23.286;2023-03-03T14:35:42;94884.06;;;5.09;100.00
69524;BME280;56723;42.694;23.286;2023-03-03T14:38:15;94891.78;;;5.09;100.00
69524;BME280;56723;42.694;23.286;2023-03-03T14:40:44;94890.69;;;5.11;100.00
69524;BME280;56723;42.694;23.286;2023-03-03T14:48:52;94887.47;;;5.19;100.00
69524;BME280;56723;42.694;23.286;2023-03-03T14:54:38;94893.13;;;5.22;100.00
69524;BME280;56723;42.694;23.286;2023-03-03T14:59:36;94879.75;;;5.19;100.00
69524;BME280;56723;42.694;23.286;2023-03-03T15:04:46;94882.06;;;5.12;100.00
69524;BME280;56723;42.694;23.286;2023-03-03T15:09:56;94881.50;;;5.09;100.00
69524;BME280;56723;42.694;23.286;2023-03-03T15:12:41;94866.63;;;5.03;100.00
69524;BME280;56723;42.694;23.286;2023-03-03T15:15:19;94880.56;;;5.10;100.00
